Time;durP1;ratioP1;P1;durP2;ratioP2;P2;SDS_P1;SDS_P2;PMS_P1;PMS_P2;Temp;Humidity;BMP_temperature;BMP_pressure;BME280_temperature;BME280_humidity;BME280_pressure;Samples;Min_cycle;Max_cycle;Signal;HPM_P1;HPM_P2
2022/02/20 00:01:53;;;;;;;10.93;1.10;;;7.40;99.90;;;;;;5069586;28;20565;-73
2022/02/20 00:04:19;;;;;;;6.38;1.13;;;7.40;99.90;;;;;;5032391;28;20468;-72
2022/02/20 00:06:44;;;;;;;7.90;1.10;;;7.40;99.90;;;;;;5067534;28;20403;-70
2022/02/20 00:09:10;;;;;;;8.55;0.93;;;7.50;99.90;;;;;;5067274;28;20415;-71
2022/02/20 00:11:36;;;;;;;9.00;1.20;;;7.50;99.90;;;;;;5067273;28;20415;-69
2022/02/20 00:14:02;;;;;;;9.73;1.50;;;7.50;99.90;;;;;;5066525;28;20415;-70
2022/02/20 00:16:28;;;;;;;10.27;1.25;;;7.50;99.90;;;;;;5065494;28;20419;-70
2022/02/20 00:18:53;;;;;;;8.03;1.50;;;7.50;99.90;;;;;;5048554;28;20927;-73
2022/02/20 00:21:19;;;;;;;8.27;0.85;;;7.50;99.90;;;;;;5067105;28;20447;-72
2022/02/20 00:23:45;;;;;;;5.80;1.03;;;7.50;99.90;;;;;;5066509;28;20411;-74
2022/02/20 00:26:10;;;;;;;8.27;1.20;;;7.50;99.90;;;;;;5049127;28;20408;-71
2022/02/20 00:28:36;;;;;;;11.20;1.45;;;7.60;99.90;;;;;;5052354;28;20411;-73
2022/02/20 00:31:02;;;;;;;8.10;1.20;;;7.60;99.90;;;;;;5051788;28;20416;-74
2022/02/20 00:33:28;;;;;;;8.32;1.30;;;7.60;99.90;;;;;;5068750;28;20783;-74
2022/02/20 00:35:54;;;;;;;7.45;1.40;;;7.60;99.90;;;;;;5070946;28;20399;-73
2022/02/20 00:38:20;;;;;;;9.83;1.10;;;7.60;99.90;;;;;;5069889;28;20426;-73
2022/02/20 00:40:46;;;;;;;6.95;0.90;;;7.60;99.90;;;;;;5086435;28;20427;-74
2022/02/20 00:43:12;;;;;;;9.40;1.17;;;7.60;99.90;;;;;;5051976;28;20410;-72
2022/02/20 00:45:38;;;;;;;7.90;0.80;;;7.70;99.90;;;;;;5052992;28;20403;-72
2022/02/20 00:48:04;;;;;;;7.55;1.00;;;7.60;99.90;;;;;;5069444;28;20434;-72
2022/02/20 00:50:30;;;;;;;6.50;1.15;;;7.60;99.90;;;;;;5053053;28;20891;-72
2022/02/20 00:52:56;;;;;;;13.60;1.50;;;7.60;99.90;;;;;;5051954;28;20415;-72
2022/02/20 00:55:22;;;;;;;9.63;1.17;;;7.60;99.90;;;;;;5071684;28;20388;-74
2022/02/20 00:57:48;;;;;;;8.25;1.20;;;7.60;99.90;;;;;;5051666;28;20868;-72
2022/02/20 01:00:15;;;;;;;7.33;1.00;;;7.60;99.90;;;;;;5053040;28;20399;-73
2022/02/20 01:02:41;;;;;;;7.53;1.10;;;7.70;99.90;;;;;;5052608;28;20419;-72
2022/02/20 01:05:08;;;;;;;5.03;0.98;;;7.70;99.90;;;;;;5068853;28;20392;-73
2022/02/20 01:07:34;;;;;;;6.45;1.00;;;7.70;99.90;;;;;;5051148;28;20450;-73
2022/02/20 01:10:00;;;;;;;8.48;0.90;;;7.70;99.90;;;;;;5052134;28;20427;-73
2022/02/20 01:12:26;;;;;;;11.80;1.20;;;7.70;99.90;;;;;;5069565;28;20408;-75
2022/02/20 01:14:51;;;;;;;12.38;1.10;;;7.70;99.90;;;;;;5070800;28;20404;-72
2022/02/20 01:17:18;;;;;;;9.07;1.00;;;7.70;99.90;;;;;;5050637;28;20408;-75
2022/02/20 01:19:43;;;;;;;6.40;0.70;;;7.70;99.90;;;;;;5068976;28;20802;-73
2022/02/20 01:22:10;;;;;;;9.05;0.98;;;7.70;99.90;;;;;;5051249;28;20465;-72
2022/02/20 01:24:35;;;;;;;9.43;0.93;;;7.70;99.90;;;;;;5070036;28;20454;-71
2022/02/20 01:27:02;;;;;;;6.47;0.90;;;7.70;99.90;;;;;;5068473;28;20411;-72
2022/02/20 01:29:27;;;;;;;8.98;0.90;;;7.70;99.90;;;;;;5081383;28;20961;-72
2022/02/20 01:31:53;;;;;;;10.63;1.00;;;7.70;99.90;;;;;;5051946;28;20407;-73
2022/02/20 01:34:20;;;;;;;4.60;0.80;;;7.70;99.90;;;;;;5050005;28;20426;-73
2022/02/20 01:36:46;;;;;;;9.35;1.20;;;7.70;99.90;;;;;;5051768;28;20529;-72
2022/02/20 01:39:17;;;;;;;7.30;1.20;;;7.70;99.90;;;;;;5050347;28;20474;-73
2022/02/20 01:41:43;;;;;;;7.70;1.13;;;7.70;99.90;;;;;;5052264;28;20750;-72
2022/02/20 01:44:09;;;;;;;4.82;1.00;;;7.70;99.90;;;;;;5051073;28;20434;-73
2022/02/20 01:46:38;;;;;;;6.63;1.13;;;7.80;99.90;;;;;;5051318;28;21060;-70
2022/02/20 01:49:04;;;;;;;7.07;1.10;;;7.70;99.90;;;;;;5049076;28;20405;-71
2022/02/20 01:51:29;;;;;;;8.25;0.98;;;7.70;99.90;;;;;;5052104;28;20399;-71
2022/02/20 01:53:56;;;;;;;6.63;1.08;;;7.70;99.90;;;;;;5033728;28;20557;-71
2022/02/20 01:56:21;;;;;;;10.73;0.80;;;7.70;99.90;;;;;;5050143;28;20451;-72
2022/02/20 01:59:17;;;;;;;6.70;0.90;;;7.70;99.90;;;;;;5051065;28;20440;-71
2022/02/20 02:01:50;;;;;;;6.25;1.00;;;7.70;99.90;;;;;;5034240;28;20507;-73
2022/02/20 02:04:34;;;;;;;8.83;1.10;;;7.60;99.90;;;;;;5051103;28;20403;-71
2022/02/20 02:07:05;;;;;;;3.15;0.60;;;7.60;99.90;;;;;;5051124;28;20395;-71
2022/02/20 02:09:45;;;;;;;6.35;0.90;;;7.60;99.90;;;;;;5069074;28;20406;-71
2022/02/20 02:12:30;;;;;;;4.85;0.82;;;7.50;99.90;;;;;;5051110;28;20465;-71
2022/02/20 02:15:16;;;;;;;5.13;0.90;;;7.50;99.90;;;;;;5059586;28;20487;-71
2022/02/20 02:18:14;;;;;;;8.27;0.93;;;7.50;99.90;;;;;;5049776;28;20415;-71
2022/02/20 02:21:15;;;;;;;3.67;0.88;;;7.50;99.90;;;;;;5051003;28;20769;-69
2022/02/20 02:24:11;;;;;;;7.18;1.00;;;7.50;99.90;;;;;;5050094;28;20411;-70
2022/02/20 02:27:01;;;;;;;4.88;0.90;;;7.50;99.90;;;;;;5068365;28;20426;-73
2022/02/20 02:29:56;;;;;;;5.60;0.73;;;7.50;99.90;;;;;;5013544;28;20431;-71
2022/02/20 02:32:22;;;;;;;8.05;0.85;;;7.50;99.90;;;;;;5049047;28;20478;-71
2022/02/20 02:34:49;;;;;;;7.67;1.10;;;7.50;99.90;;;;;;5049821;28;20423;-73
2022/02/20 02:37:15;;;;;;;8.80;0.80;;;7.50;99.90;;;;;;5047410;28;20443;-73
2022/02/20 02:39:42;;;;;;;7.05;1.00;;;7.50;99.90;;;;;;5050747;28;20407;-73
2022/02/20 02:42:09;;;;;;;6.45;0.73;;;7.50;99.90;;;;;;5049655;28;20512;-74
2022/02/20 02:44:36;;;;;;;6.22;0.93;;;7.50;99.90;;;;;;5049843;28;20396;-73
2022/02/20 02:47:02;;;;;;;9.63;0.93;;;7.60;99.90;;;;;;5048584;28;20875;-72
2022/02/20 02:49:28;;;;;;;8.20;0.90;;;7.60;99.90;;;;;;5047347;28;20425;-71
2022/02/20 02:51:53;;;;;;;8.57;1.10;;;7.60;99.90;;;;;;5082287;28;20923;-74
2022/02/20 02:54:22;;;;;;;5.67;0.80;;;7.60;99.90;;;;;;5049661;28;20919;-73
2022/02/20 02:56:49;;;;;;;11.82;1.20;;;7.50;99.90;;;;;;5050438;28;20384;-72
2022/02/20 02:59:16;;;;;;;8.88;1.10;;;7.50;99.90;;;;;;5048858;28;20407;-71
2022/02/20 03:01:43;;;;;;;6.20;1.00;;;7.50;99.90;;;;;;5048368;28;20403;-72
2022/02/20 03:04:09;;;;;;;6.22;1.17;;;7.50;99.90;;;;;;5082331;28;20418;-73
2022/02/20 03:06:36;;;;;;;6.40;1.20;;;7.50;99.90;;;;;;5068496;28;20462;-73
2022/02/20 03:09:07;;;;;;;7.45;0.95;;;7.50;99.90;;;;;;5049439;28;20841;-72
2022/02/20 03:11:34;;;;;;;6.32;1.00;;;7.50;99.90;;;;;;5049487;28;20403;-73
2022/02/20 03:14:02;;;;;;;10.88;1.10;;;7.50;99.90;;;;;;5049491;28;20411;-73
2022/02/20 03:16:29;;;;;;;7.90;1.08;;;7.50;99.90;;;;;;5049005;28;20400;-72
2022/02/20 03:18:55;;;;;;;8.40;1.13;;;7.50;99.90;;;;;;5048706;28;20419;-70
2022/02/20 03:21:24;;;;;;;8.52;1.10;;;7.40;99.90;;;;;;5049972;28;20487;-72
2022/02/20 03:23:51;;;;;;;8.48;1.40;;;7.40;99.90;;;;;;5049431;28;20494;-71
2022/02/20 03:26:17;;;;;;;7.30;1.23;;;7.40;99.90;;;;;;5049452;28;20400;-71
2022/02/20 03:28:44;;;;;;;10.48;1.40;;;7.50;99.90;;;;;;5049064;28;20437;-71
2022/02/20 03:31:12;;;;;;;8.70;1.35;;;7.40;99.90;;;;;;5033929;28;20408;-72
2022/02/20 03:33:37;;;;;;;7.63;1.03;;;7.40;99.90;;;;;;5065551;28;20399;-71
2022/02/20 03:36:05;;;;;;;9.50;1.20;;;7.40;99.90;;;;;;5050075;28;20493;-71
2022/02/20 03:38:32;;;;;;;8.13;1.27;;;7.40;99.90;;;;;;5048968;28;20411;-71
2022/02/20 03:40:58;;;;;;;7.78;1.10;;;7.30;99.90;;;;;;5050011;28;20705;-72
2022/02/20 03:43:34;;;;;;;6.05;1.23;;;7.30;99.90;;;;;;5049000;28;20799;-71
2022/02/20 03:46:02;;;;;;;11.52;1.65;;;7.30;99.90;;;;;;5049339;28;20392;-70
2022/02/20 03:48:30;;;;;;;9.95;1.35;;;7.30;99.90;;;;;;5048592;28;20926;-71
2022/02/20 03:51:21;;;;;;;9.93;1.57;;;7.30;99.90;;;;;;5027999;28;20399;-72
2022/02/20 03:53:47;;;;;;;10.00;1.40;;;7.30;99.90;;;;;;5048706;28;20418;-71
2022/02/20 03:56:13;;;;;;;10.27;1.42;;;7.30;99.90;;;;;;5033833;28;20400;-71
2022/02/20 03:58:44;;;;;;;9.30;1.65;;;7.30;99.90;;;;;;5065071;28;20407;-71
2022/02/20 04:01:10;;;;;;;8.27;1.60;;;7.30;99.90;;;;;;5049836;28;20399;-71
2022/02/20 04:03:46;;;;;;;10.57;1.63;;;7.30;99.90;;;;;;5052574;28;20399;-71
2022/02/20 04:06:11;;;;;;;11.23;1.80;;;7.30;99.90;;;;;;5052776;28;20892;-70
2022/02/20 04:08:44;;;;;;;12.50;2.53;;;7.30;99.90;;;;;;5051825;28;20454;-71
2022/02/20 04:11:10;;;;;;;11.30;2.33;;;7.30;99.90;;;;;;5069561;28;20427;-71
2022/02/20 04:13:56;;;;;;;13.10;3.47;;;7.20;99.90;;;;;;5066081;28;20500;-73
2022/02/20 04:16:37;;;;;;;11.82;4.00;;;7.20;99.90;;;;;;5052675;28;20420;-72
2022/02/20 04:19:04;;;;;;;13.25;3.97;;;7.10;99.90;;;;;;5052730;28;20186;-69
2022/02/20 04:21:34;;;;;;;11.85;4.70;;;6.70;99.90;;;;;;5053182;28;20213;-70
2022/02/20 04:24:07;;;;;;;14.48;6.38;;;6.40;99.90;;;;;;5052398;28;20540;-72
2022/02/20 04:26:33;;;;;;;17.00;6.68;;;6.10;99.90;;;;;;5053857;28;20266;-73
2022/02/20 04:28:58;;;;;;;17.80;9.52;;;5.90;99.90;;;;;;5049671;28;20411;-73
2022/02/20 04:31:24;;;;;;;16.27;8.77;;;6.10;99.90;;;;;;5036135;28;20276;-73
2022/02/20 04:33:57;;;;;;;16.10;8.93;;;6.00;99.90;;;;;;5048466;28;20188;-71
2022/02/20 04:36:23;;;;;;;19.50;8.75;;;5.80;99.90;;;;;;5051412;28;20187;-73
2022/02/20 04:38:54;;;;;;;18.17;9.05;;;5.60;99.90;;;;;;5066423;28;20191;-73
2022/02/20 04:41:22;;;;;;;21.05;9.38;;;5.60;99.90;;;;;;5053154;28;20222;-72
2022/02/20 04:43:49;;;;;;;16.08;9.52;;;5.50;99.90;;;;;;5051689;28;20274;-72
2022/02/20 04:46:16;;;;;;;22.05;9.50;;;5.50;99.90;;;;;;5053441;28;20186;-72
2022/02/20 04:48:43;;;;;;;21.00;10.63;;;5.40;99.90;;;;;;5051775;28;20218;-72
2022/02/20 04:51:24;;;;;;;23.67;10.20;;;5.40;99.90;;;;;;5053136;28;20182;-72
2022/02/20 04:53:50;;;;;;;19.23;10.25;;;5.40;99.90;;;;;;5070142;28;20243;-72
2022/02/20 04:56:18;;;;;;;18.05;10.50;;;5.30;99.90;;;;;;5052561;28;20283;-72
2022/02/20 04:58:44;;;;;;;18.00;10.40;;;5.30;99.90;;;;;;5051367;28;20198;-75
2022/02/20 05:01:25;;;;;;;21.17;11.57;;;5.30;99.90;;;;;;5052876;28;20296;-74
2022/02/20 05:04:20;;;;;;;19.27;11.27;;;5.30;99.90;;;;;;5056336;28;20198;-73
2022/02/20 05:06:48;;;;;;;22.73;11.15;;;5.20;99.90;;;;;;5049474;28;20334;-74
2022/02/20 05:09:24;;;;;;;22.02;10.57;;;5.20;99.90;;;;;;5084360;28;20182;-73
2022/02/20 05:11:55;;;;;;;31.58;16.92;;;5.20;99.90;;;;;;5051059;28;20947;-72
2022/02/20 05:14:21;;;;;;;29.60;17.00;;;5.50;99.90;;;;;;5050517;28;20415;-73
2022/02/20 05:16:47;;;;;;;26.80;16.50;;;5.80;99.90;;;;;;5050913;28;22232;-74
2022/02/20 05:19:21;;;;;;;28.73;16.10;;;6.00;99.90;;;;;;5064020;28;20449;-73
2022/02/20 05:21:54;;;;;;;29.75;15.95;;;6.10;99.90;;;;;;5051249;28;20534;-74
2022/02/20 05:24:21;;;;;;;28.52;15.20;;;6.20;99.90;;;;;;5033752;28;20472;-73
2022/02/20 05:26:50;;;;;;;31.45;16.15;;;6.30;99.90;;;;;;5051597;28;20392;-74
2022/02/20 05:29:16;;;;;;;30.23;16.08;;;6.30;99.90;;;;;;5051021;28;20414;-73
2022/02/20 05:31:42;;;;;;;29.45;15.73;;;6.40;99.90;;;;;;5050533;28;20896;-71
2022/02/20 05:34:12;;;;;;;31.38;15.43;;;6.40;99.90;;;;;;5050308;28;20414;-71
2022/02/20 05:36:38;;;;;;;31.07;15.60;;;6.40;99.90;;;;;;5048651;28;20959;-71
2022/02/20 05:39:10;;;;;;;36.65;16.63;;;6.40;99.90;;;;;;5067132;28;20419;-73
2022/02/20 05:41:40;;;;;;;30.40;13.65;;;6.40;99.90;;;;;;5052011;28;20226;-74
2022/02/20 05:44:05;;;;;;;22.30;12.35;;;6.10;99.90;;;;;;5051138;28;20536;-73
2022/02/20 05:46:36;;;;;;;35.28;13.77;;;5.90;99.90;;;;;;5051766;28;20292;-73
2022/02/20 05:49:06;;;;;;;26.75;12.43;;;5.70;99.90;;;;;;5049120;28;20587;-74
2022/02/20 05:51:43;;;;;;;34.47;13.57;;;5.60;99.90;;;;;;5053133;28;20214;-73
2022/02/20 05:54:20;;;;;;;34.55;14.07;;;5.60;99.90;;;;;;5049366;28;20194;-74
2022/02/20 05:56:46;;;;;;;33.00;13.55;;;5.50;99.90;;;;;;5050962;28;20189;-73
2022/02/20 05:59:13;;;;;;;37.55;15.50;;;5.50;99.90;;;;;;5049975;28;20212;-75
2022/02/20 06:01:38;;;;;;;40.53;14.73;;;5.50;99.90;;;;;;5050659;28;20206;-73
2022/02/20 06:04:08;;;;;;;32.55;15.13;;;5.50;99.90;;;;;;5034989;28;20183;-70
2022/02/20 06:07:03;;;;;;;36.17;14.20;;;5.50;99.90;;;;;;5012824;28;20201;-70
2022/02/20 06:09:48;;;;;;;30.63;15.13;;;5.50;99.90;;;;;;5054217;28;20237;-71
2022/02/20 06:12:26;;;;;;;38.33;16.45;;;5.50;99.90;;;;;;5049713;28;20289;-70
2022/02/20 06:15:14;;;;;;;38.33;16.67;;;5.60;99.90;;;;;;5049492;28;20694;-71
2022/02/20 06:18:00;;;;;;;47.33;24.38;;;5.60;99.90;;;;;;5056774;28;20544;-72
2022/02/20 06:20:44;;;;;;;45.80;24.33;;;6.10;99.90;;;;;;5066247;28;20407;-71
2022/02/20 06:23:22;;;;;;;46.03;24.48;;;6.40;99.90;;;;;;5048317;28;20411;-71
2022/02/20 06:25:57;;;;;;;49.35;24.48;;;6.70;99.90;;;;;;5065618;28;20465;-71
2022/02/20 06:28:26;;;;;;;48.93;24.60;;;6.80;99.90;;;;;;5063631;28;20411;-72
2022/02/20 06:30:53;;;;;;;46.70;22.38;;;7.00;99.90;;;;;;5049305;28;20998;-71
2022/02/20 06:33:26;;;;;;;46.72;18.83;;;7.10;99.90;;;;;;5048544;28;20413;-71
2022/02/20 06:35:55;;;;;;;48.75;15.45;;;7.30;99.90;;;;;;5048629;28;20406;-71
2022/02/20 06:38:22;;;;;;;51.22;8.95;;;7.50;99.90;;;;;;5050468;28;20734;-72
2022/02/20 06:40:51;;;;;;;55.35;7.32;;;7.40;99.90;;;;;;5049099;28;20206;-71
2022/02/20 06:43:20;;;;;;;67.72;9.10;;;7.40;99.90;;;;;;5047192;28;20424;-71
2022/02/20 06:45:53;;;;;;;71.60;8.10;;;7.80;99.90;;;;;;5048358;28;20446;-73
2022/02/20 06:48:35;;;;;;;82.50;8.70;;;8.20;99.90;;;;;;5065073;28;20461;-71
2022/02/20 06:51:10;;;;;;;85.97;9.52;;;8.40;99.90;;;;;;5049088;28;20412;-72
2022/02/20 06:53:54;;;;;;;87.28;9.02;;;8.60;99.90;;;;;;5033340;28;20429;-73
2022/02/20 06:56:41;;;;;;;86.50;9.00;;;8.70;99.90;;;;;;5047402;28;20415;-73
2022/02/20 06:59:07;;;;;;;84.93;9.43;;;8.80;99.90;;;;;;5046498;28;20926;-73
2022/02/20 07:01:32;;;;;;;84.93;9.10;;;8.90;99.90;;;;;;5063722;28;20471;-74
2022/02/20 07:03:58;;;;;;;85.97;8.85;;;9.00;99.90;;;;;;5047660;28;20419;-73
2022/02/20 07:06:24;;;;;;;87.63;8.93;;;9.00;99.90;;;;;;5047263;28;20496;-73
2022/02/20 07:08:50;;;;;;;96.88;9.48;;;9.10;99.90;;;;;;5065997;28;20415;-75
2022/02/20 07:11:16;;;;;;;95.72;9.57;;;9.20;99.90;;;;;;5065100;28;20423;-72
2022/02/20 07:13:41;;;;;;;99.57;10.10;;;9.20;99.90;;;;;;5047978;28;20434;-73
2022/02/20 07:16:07;;;;;;;88.82;9.23;;;9.20;99.90;;;;;;5066657;28;20435;-73
2022/02/20 07:18:32;;;;;;;86.73;8.73;;;9.20;99.90;;;;;;5065126;28;20411;-73
2022/02/20 07:20:58;;;;;;;86.87;9.33;;;9.30;99.90;;;;;;5066175;28;20411;-73
2022/02/20 07:23:24;;;;;;;95.30;9.13;;;9.30;99.90;;;;;;5065244;28;20418;-72
2022/02/20 07:25:49;;;;;;;87.57;9.87;;;9.40;99.90;;;;;;5065979;28;20396;-72
2022/02/20 07:28:15;;;;;;;86.23;8.97;;;9.40;99.90;;;;;;5065719;28;20442;-72
2022/02/20 07:30:40;;;;;;;91.88;8.88;;;9.40;99.90;;;;;;5066497;28;20418;-71
2022/02/20 07:33:08;;;;;;;81.90;9.17;;;9.50;99.90;;;;;;5046746;28;20477;-71
2022/02/20 07:35:38;;;;;;;87.90;9.20;;;9.50;99.90;;;;;;5065286;28;20411;-73
2022/02/20 07:38:05;;;;;;;85.05;9.55;;;9.50;99.90;;;;;;5067332;28;21367;-71
2022/02/20 07:40:31;;;;;;;86.10;8.32;;;9.50;99.90;;;;;;5071255;28;20288;-71
2022/02/20 07:42:57;;;;;;;83.65;8.48;;;9.30;99.90;;;;;;5052446;28;20892;-70
2022/02/20 07:45:24;;;;;;;90.43;8.75;;;9.00;99.90;;;;;;5070894;28;20235;-72
2022/02/20 07:48:03;;;;;;;81.15;7.53;;;8.90;99.90;;;;;;5068750;28;20198;-71
2022/02/20 07:50:35;;;;;;;98.28;7.57;;;8.80;99.90;;;;;;5049981;28;20185;-72
2022/02/20 07:53:02;;;;;;;77.13;7.82;;;8.80;99.90;;;;;;5071009;28;20178;-71
2022/02/20 07:55:28;;;;;;;77.32;8.45;;;8.80;99.90;;;;;;5071273;28;20264;-73
2022/02/20 07:57:54;;;;;;;78.18;7.85;;;8.70;99.90;;;;;;5071163;28;20186;-71
2022/02/20 08:00:26;;;;;;;80.38;7.95;;;8.70;99.90;;;;;;5070220;28;20206;-71
2022/02/20 08:02:51;;;;;;;64.85;7.00;;;8.70;99.90;;;;;;5053245;28;20552;-70
2022/02/20 08:05:17;;;;;;;86.13;8.32;;;8.80;99.90;;;;;;5070149;28;20193;-72
2022/02/20 08:07:43;;;;;;;87.70;8.63;;;8.80;99.90;;;;;;5052231;28;20182;-70
2022/02/20 08:10:09;;;;;;;88.45;7.93;;;8.80;99.90;;;;;;5053288;28;20608;-72
2022/02/20 08:12:35;;;;;;;91.93;9.43;;;8.80;99.90;;;;;;5052860;28;20201;-71
2022/02/20 08:15:01;;;;;;;69.90;7.05;;;8.80;99.90;;;;;;5069023;28;20178;-71
2022/02/20 08:17:27;;;;;;;70.70;7.78;;;8.80;99.90;;;;;;5051726;28;20174;-71
2022/02/20 08:19:52;;;;;;;79.05;8.88;;;8.90;99.90;;;;;;5070321;28;20277;-71
2022/02/20 08:22:18;;;;;;;81.40;8.63;;;8.90;99.90;;;;;;5070510;28;20226;-71
2022/02/20 08:24:45;;;;;;;90.63;8.90;;;8.90;99.90;;;;;;5052599;28;20236;-71
2022/02/20 08:27:11;;;;;;;89.72;8.70;;;8.90;99.90;;;;;;5070008;28;20376;-72
2022/02/20 08:29:37;;;;;;;87.60;9.05;;;8.90;99.90;;;;;;5052230;28;20320;-70
2022/02/20 08:32:04;;;;;;;78.28;9.15;;;8.90;99.90;;;;;;5052295;28;20281;-71
2022/02/20 08:34:30;;;;;;;77.68;8.60;;;8.90;99.90;;;;;;5069055;28;20207;-71
2022/02/20 08:36:55;;;;;;;105.80;9.90;;;9.00;99.90;;;;;;5070297;28;20183;-74
2022/02/20 08:39:21;;;;;;;85.75;9.05;;;9.00;99.90;;;;;;5035835;28;20196;-73
2022/02/20 08:41:48;;;;;;;91.68;8.88;;;9.00;99.90;;;;;;5070081;28;20301;-70
2022/02/20 08:44:14;;;;;;;92.25;8.75;;;9.00;99.90;;;;;;5050246;28;20532;-72
2022/02/20 08:46:40;;;;;;;75.85;8.65;;;9.10;99.90;;;;;;5052265;28;20194;-72
2022/02/20 08:49:05;;;;;;;77.40;9.18;;;9.10;99.90;;;;;;5050979;28;20183;-74
2022/02/20 08:51:32;;;;;;;82.68;8.85;;;9.10;99.90;;;;;;5051249;28;20195;-71
2022/02/20 08:53:57;;;;;;;77.85;9.80;;;9.10;99.90;;;;;;5070630;28;20178;-72
2022/02/20 08:56:26;;;;;;;68.82;8.55;;;9.10;99.90;;;;;;5070210;28;20201;-71
2022/02/20 08:58:53;;;;;;;78.10;8.93;;;9.10;99.90;;;;;;5070744;28;20210;-69
2022/02/20 09:01:18;;;;;;;65.97;7.80;;;9.20;99.90;;;;;;5071024;28;20267;-72
2022/02/20 09:03:44;;;;;;;80.57;9.27;;;9.20;99.90;;;;;;5070152;28;20632;-73
2022/02/20 09:06:09;;;;;;;82.03;8.80;;;9.20;99.90;;;;;;5070598;28;20178;-73
2022/02/20 09:08:35;;;;;;;81.72;9.75;;;9.30;99.90;;;;;;5070859;28;20644;-70
2022/02/20 09:11:01;;;;;;;84.60;11.47;;;9.30;99.90;;;;;;5063095;28;20408;-71
2022/02/20 09:13:27;;;;;;;82.72;11.27;;;9.70;99.90;;;;;;5048458;28;20399;-73
2022/02/20 09:15:54;;;;;;;73.10;11.10;;;10.00;99.90;;;;;;5065530;28;20423;-73
2022/02/20 09:18:20;;;;;;;76.18;11.23;;;10.10;99.90;;;;;;5063606;28;20407;-73
2022/02/20 09:20:45;;;;;;;82.82;11.38;;;10.20;99.90;;;;;;5067040;28;21210;-71
2022/02/20 09:23:11;;;;;;;70.63;11.63;;;10.30;99.90;;;;;;5069211;28;20407;-72
2022/02/20 09:25:38;;;;;;;82.93;10.88;;;10.40;99.90;;;;;;5066558;28;20411;-74
2022/02/20 09:28:04;;;;;;;80.78;11.98;;;10.50;99.90;;;;;;5065708;28;20831;-72
2022/02/20 09:30:30;;;;;;;76.70;11.90;;;10.50;99.90;;;;;;5064554;28;20410;-72
2022/02/20 09:32:55;;;;;;;88.60;12.27;;;10.60;99.90;;;;;;5065682;28;20949;-72
2022/02/20 09:35:23;;;;;;;88.73;12.07;;;10.60;99.90;;;;;;5069136;28;20408;-73
2022/02/20 09:37:48;;;;;;;89.10;12.23;;;10.60;99.90;;;;;;5067990;28;20934;-73
2022/02/20 09:40:14;;;;;;;85.57;12.57;;;10.70;99.90;;;;;;5049497;28;20469;-72
2022/02/20 09:42:40;;;;;;;98.32;13.05;;;10.70;99.90;;;;;;5067468;28;20506;-73
2022/02/20 09:45:07;;;;;;;96.68;13.20;;;10.70;99.90;;;;;;5068000;28;20482;-72
2022/02/20 09:47:39;;;;;;;96.80;13.52;;;10.70;99.90;;;;;;5067423;28;20408;-78
2022/02/20 09:50:06;;;;;;;98.13;14.02;;;10.70;99.90;;;;;;5080287;28;20415;-73
2022/02/20 09:52:32;;;;;;;107.30;14.10;;;10.70;99.90;;;;;;5050225;28;20414;-75
2022/02/20 09:54:58;;;;;;;107.97;13.13;;;10.70;99.90;;;;;;5066936;28;20415;-74
2022/02/20 09:57:24;;;;;;;90.63;13.95;;;10.70;99.90;;;;;;5066978;28;20411;-73
2022/02/20 09:59:50;;;;;;;101.63;13.73;;;10.70;99.90;;;;;;5064950;28;20507;-73
2022/02/20 10:02:19;;;;;;;113.15;14.40;;;10.70;99.90;;;;;;5050473;28;20447;-72
2022/02/20 10:04:53;;;;;;;103.38;14.65;;;10.70;99.90;;;;;;5068685;28;20790;-74
2022/02/20 10:07:36;;;;;;;105.10;13.82;;;10.60;99.90;;;;;;5049800;28;20407;-74
2022/02/20 10:10:12;;;;;;;103.57;13.85;;;10.60;99.90;;;;;;5066446;28;20508;-74
2022/02/20 10:12:38;;;;;;;98.75;13.85;;;10.60;99.90;;;;;;5067006;28;20403;-72
2022/02/20 10:15:36;;;;;;;108.20;13.90;;;10.50;99.90;;;;;;5048599;28;20426;-73
2022/02/20 10:18:27;;;;;;;119.20;14.75;;;10.50;99.90;;;;;;5036523;28;20521;-72
2022/02/20 10:21:15;;;;;;;110.03;14.05;;;10.50;99.90;;;;;;5068188;28;20426;-73
2022/02/20 10:24:06;;;;;;;121.05;15.20;;;10.40;99.90;;;;;;5055117;28;20392;-74
2022/02/20 10:26:50;;;;;;;104.30;13.73;;;10.40;99.90;;;;;;5059315;28;20445;-74
2022/02/20 10:29:34;;;;;;;111.45;15.35;;;10.40;99.90;;;;;;5056815;28;20445;-72
2022/02/20 10:32:00;;;;;;;108.53;14.25;;;10.40;99.90;;;;;;5056100;28;20405;-73
2022/02/20 10:34:30;;;;;;;113.57;14.43;;;10.30;99.90;;;;;;5072544;28;20415;-72
2022/02/20 10:36:57;;;;;;;120.97;14.80;;;10.30;99.90;;;;;;5055819;28;20451;-73
2022/02/20 10:39:31;;;;;;;122.18;14.88;;;10.40;99.90;;;;;;5057023;28;20461;-73
2022/02/20 10:41:59;;;;;;;127.10;15.50;;;10.30;99.90;;;;;;5056527;28;20885;-72
2022/02/20 10:44:25;;;;;;;119.60;15.43;;;10.30;99.90;;;;;;5059033;28;20528;-72
2022/02/20 10:47:12;;;;;;;111.10;14.75;;;10.30;99.90;;;;;;5056439;28;20460;-73
2022/02/20 10:49:38;;;;;;;122.30;14.80;;;10.40;99.90;;;;;;5067523;28;20395;-72
2022/02/20 10:52:04;;;;;;;109.95;15.07;;;10.30;99.90;;;;;;5056896;28;20411;-70
2022/02/20 10:54:30;;;;;;;117.88;14.43;;;10.40;99.90;;;;;;5058491;28;20881;-73
2022/02/20 10:56:56;;;;;;;109.73;15.17;;;10.40;99.90;;;;;;5061523;28;20415;-72
2022/02/20 10:59:22;;;;;;;109.72;14.90;;;10.40;99.90;;;;;;5050511;28;20411;-71
2022/02/20 11:01:49;;;;;;;112.25;14.32;;;10.40;99.90;;;;;;5063748;28;20887;-73
2022/02/20 11:04:15;;;;;;;108.63;14.77;;;10.40;99.90;;;;;;5063932;28;20411;-72
2022/02/20 11:06:48;;;;;;;106.30;14.30;;;10.40;99.90;;;;;;5059860;28;20424;-72
2022/02/20 11:09:15;;;;;;;107.13;14.65;;;10.50;99.90;;;;;;5065108;28;20414;-74
2022/02/20 11:11:49;;;;;;;107.00;14.65;;;10.50;99.90;;;;;;5067227;28;20415;-71
2022/02/20 11:14:18;;;;;;;123.13;15.43;;;10.50;99.90;;;;;;5050150;28;20983;-74
2022/02/20 11:16:53;;;;;;;106.72;14.13;;;10.50;99.90;;;;;;5065975;28;20791;-73
2022/02/20 11:19:24;;;;;;;115.70;15.35;;;10.50;99.90;;;;;;5064882;28;20447;-71
2022/02/20 11:21:58;;;;;;;115.03;14.68;;;10.50;99.90;;;;;;5064607;28;20473;-71
2022/02/20 11:24:26;;;;;;;108.05;14.15;;;10.50;99.90;;;;;;5065851;28;20812;-71
2022/02/20 11:26:54;;;;;;;106.30;14.13;;;10.50;99.90;;;;;;5065620;28;20907;-71
2022/02/20 11:29:20;;;;;;;109.25;14.55;;;10.50;99.90;;;;;;5032536;28;20407;-71
2022/02/20 11:31:47;;;;;;;104.72;14.52;;;10.60;99.90;;;;;;5049527;28;20407;-72
2022/02/20 11:34:13;;;;;;;110.35;14.90;;;10.50;99.90;;;;;;5067247;28;20918;-71
2022/02/20 11:36:53;;;;;;;115.93;15.02;;;10.50;99.90;;;;;;5050269;28;20491;-72
2022/02/20 11:39:20;;;;;;;116.28;15.57;;;10.50;99.90;;;;;;5065546;28;20804;-71
2022/02/20 11:42:15;;;;;;;109.55;15.38;;;10.50;99.90;;;;;;5050173;28;22602;-71
2022/02/20 11:44:55;;;;;;;112.43;15.63;;;10.50;99.90;;;;;;5065568;28;20432;-71
2022/02/20 11:47:33;;;;;;;115.15;14.70;;;10.50;99.90;;;;;;5044722;28;20538;-71
2022/02/20 11:50:17;;;;;;;121.03;15.63;;;10.50;99.90;;;;;;5066179;28;20887;-72
2022/02/20 11:52:54;;;;;;;121.05;15.18;;;10.40;99.90;;;;;;5065121;28;20411;-73
2022/02/20 11:55:29;;;;;;;115.55;15.38;;;10.50;99.90;;;;;;5068049;28;20491;-70
2022/02/20 11:58:23;;;;;;;121.63;15.45;;;10.40;99.90;;;;;;5048896;28;20430;-70
2022/02/20 12:00:55;;;;;;;129.75;15.43;;;10.40;99.90;;;;;;5067080;28;20412;-71
2022/02/20 12:03:22;;;;;;;112.50;14.65;;;10.40;99.90;;;;;;5066826;28;20828;-69
2022/02/20 12:06:09;;;;;;;120.40;14.63;;;10.40;99.90;;;;;;5065633;28;20486;-72
2022/02/20 12:08:37;;;;;;;115.18;15.25;;;10.40;99.90;;;;;;5066387;28;20403;-71
2022/02/20 12:11:13;;;;;;;120.43;15.82;;;10.40;99.90;;;;;;5067516;28;20884;-71
2022/02/20 12:13:47;;;;;;;122.72;15.45;;;10.40;99.90;;;;;;5063578;28;20412;-74
2022/02/20 12:16:29;;;;;;;120.85;15.57;;;10.40;99.90;;;;;;5066211;28;20410;-73
2022/02/20 12:19:27;;;;;;;122.18;15.77;;;10.40;99.90;;;;;;5064549;28;20499;-71
2022/02/20 12:21:54;;;;;;;117.72;15.30;;;10.40;99.90;;;;;;5067194;28;20412;-74
2022/02/20 12:24:25;;;;;;;126.07;15.38;;;10.40;99.90;;;;;;5068813;28;20417;-71
2022/02/20 12:26:55;;;;;;;113.17;15.13;;;10.40;99.90;;;;;;5051817;28;20408;-72
2022/02/20 12:29:24;;;;;;;119.25;15.57;;;10.40;99.90;;;;;;5050650;28;20414;-72
2022/02/20 12:32:10;;;;;;;127.45;15.65;;;10.40;99.90;;;;;;5052543;28;20407;-72
2022/02/20 12:34:50;;;;;;;119.85;15.15;;;10.40;99.90;;;;;;5070644;28;20407;-71
2022/02/20 12:37:17;;;;;;;122.30;15.60;;;10.40;99.90;;;;;;5069787;28;20433;-71
2022/02/20 12:39:44;;;;;;;116.68;15.65;;;10.40;99.90;;;;;;5069443;28;20472;-73
2022/02/20 12:42:10;;;;;;;127.88;16.30;;;10.40;99.90;;;;;;5050705;28;21062;-72
2022/02/20 12:44:39;;;;;;;131.02;16.90;;;10.40;99.90;;;;;;5070889;28;20400;-71
2022/02/20 12:47:05;;;;;;;127.40;15.95;;;10.40;99.90;;;;;;5070362;28;20430;-70
2022/02/20 12:49:31;;;;;;;131.73;16.92;;;10.40;99.90;;;;;;5084221;28;20423;-71
2022/02/20 12:52:04;;;;;;;125.53;15.70;;;10.40;99.90;;;;;;5070923;28;20402;-74
2022/02/20 12:54:30;;;;;;;114.15;15.38;;;10.40;99.90;;;;;;5051433;28;20965;-69
2022/02/20 12:57:00;;;;;;;126.78;15.63;;;10.40;99.90;;;;;;5069536;28;20872;-74